Time;durP1;ratioP1;P1;durP2;ratioP2;P2;SDS_P1;SDS_P2;PMS_P1;PMS_P2;Temp;Humidity;BMP_temperature;BMP_pressure;BME280_temperature;BME280_humidity;BME280_pressure;Samples;Min_cycle;Max_cycle;Signal;HPM_P1;HPM_P2
2022/02/27 00:00:50;;;;;;;3.90;1.80;;;;;;;0.58;62.39;100299.79;104916;1271;61025;-29
2022/02/27 00:03:18;;;;;;;6.80;2.10;;;;;;;0.53;62.50;100301.08;104899;1271;61032;-29
2022/02/27 00:05:47;;;;;;;4.50;2.10;;;;;;;0.48;62.84;100301.53;104933;1271;75500;-29
2022/02/27 00:08:16;;;;;;;7.80;2.20;;;;;;;0.43;63.14;100297.52;104873;1271;75956;-29
2022/02/27 00:10:45;;;;;;;4.60;2.10;;;;;;;0.37;63.18;100292.34;104827;1272;73572;-29
2022/02/27 00:13:14;;;;;;;4.30;2.20;;;;;;;0.33;63.60;100295.51;105117;1271;61157;-29
2022/02/27 00:15:42;;;;;;;10.60;2.60;;;;;;;0.27;63.56;100290.30;104895;1271;62084;-29
2022/02/27 00:18:12;;;;;;;5.80;2.50;;;;;;;0.22;64.12;100288.52;104914;1271;73284;-30
2022/02/27 00:20:42;;;;;;;8.30;2.80;;;;;;;0.16;64.54;100284.36;104941;1271;74479;-30
2022/02/27 00:23:10;;;;;;;8.00;3.10;;;;;;;0.12;64.64;100279.82;104903;1271;74349;-30
2022/02/27 00:25:40;;;;;;;5.80;3.30;;;;;;;0.10;64.58;100279.02;104912;1271;61042;-29
2022/02/27 00:28:09;;;;;;;8.10;3.10;;;;;;;0.10;64.57;100278.66;104838;1271;61159;-30
2022/02/27 00:32:39;;;;;;;5.30;2.40;;;;;;;0.37;64.62;100277.48;101322;1312;616327;-31
2022/02/27 00:35:09;;;;;;;7.90;3.10;;;;;;;1.17;62.03;100280.25;104621;1277;61037;-29
2022/02/27 00:37:36;;;;;;;4.60;2.50;;;;;;;1.33;61.01;100279.70;104646;1277;61244;-29
2022/02/27 00:40:05;;;;;;;6.20;2.20;;;;;;;1.28;60.76;100278.11;104616;1277;73289;-29
2022/02/27 00:42:32;;;;;;;7.10;2.10;;;;;;;1.23;60.66;100272.05;104616;1277;73676;-29
2022/02/27 00:45:00;;;;;;;4.40;2.30;;;;;;;1.02;60.82;100273.23;104458;1274;246010;-29
2022/02/27 00:47:27;;;;;;;4.50;2.00;;;;;;;0.85;61.80;100273.77;104769;1274;61133;-29
2022/02/27 00:49:54;;;;;;;4.80;2.10;;;;;;;0.71;61.87;100273.02;104773;1274;61756;-28
2022/02/27 00:52:22;;;;;;;5.00;2.50;;;;;;;0.67;61.78;100269.35;104754;1274;72713;-29
2022/02/27 00:54:50;;;;;;;4.90;2.30;;;;;;;0.61;62.24;100272.20;104819;1274;75291;-29
2022/02/27 00:57:23;;;;;;;4.80;2.30;;;;;;;0.48;62.59;100269.05;104388;1275;73298;-29
2022/02/27 00:59:51;;;;;;;3.00;1.50;;;;;;;0.42;62.55;100269.02;104636;1270;61102;-29
2022/02/27 01:02:18;;;;;;;4.80;2.00;;;;;;;0.34;63.23;100268.31;104809;1270;61245;-29
2022/02/27 01:04:46;;;;;;;4.10;1.70;;;;;;;0.25;64.37;100271.04;104851;1271;74778;-29
2022/02/27 01:07:14;;;;;;;3.60;1.70;;;;;;;0.16;64.51;100264.90;104937;1271;75004;-29
2022/02/27 01:09:44;;;;;;;3.50;1.40;;;;;;;0.05;65.40;100261.52;104787;1270;74439;-31
2022/02/27 01:12:12;;;;;;;2.00;1.10;;;;;;;-0.04;65.85;100258.78;104786;1271;61044;-29
2022/02/27 01:14:39;;;;;;;5.50;1.70;;;;;;;-0.09;65.75;100257.17;105021;1270;61154;-31
2022/02/27 01:17:07;;;;;;;3.90;1.80;;;;;;;-0.16;66.62;100255.41;104962;1270;73831;-30
2022/02/27 01:19:35;;;;;;;3.90;2.10;;;;;;;-0.26;67.60;100256.27;105026;1270;76046;-29
2022/02/27 01:22:03;;;;;;;2.90;1.60;;;;;;;-0.36;67.80;100255.41;105067;1271;74223;-29
2022/02/27 01:24:34;;;;;;;4.30;1.40;;;;;;;-0.48;69.39;100255.10;104645;1270;61036;-28
2022/02/27 01:27:02;;;;;;;3.80;1.30;;;;;;;-0.08;69.76;100261.05;104806;1271;62031;-29
2022/02/27 01:29:30;;;;;;;5.30;1.70;;;;;;;0.61;67.63;100262.14;104834;1273;74875;-30
2022/02/27 01:31:57;;;;;;;4.20;1.70;;;;;;;0.78;66.02;100255.98;104746;1273;76074;-29
2022/02/27 01:34:24;;;;;;;4.30;1.80;;;;;;;0.78;64.92;100252.73;104808;1273;73411;-30
2022/02/27 01:36:52;;;;;;;2.80;1.40;;;;;;;0.68;65.05;100252.41;105011;1272;61163;-27
2022/02/27 01:39:19;;;;;;;4.10;1.70;;;;;;;0.51;65.55;100253.11;105036;1273;61158;-32
2022/02/27 01:41:47;;;;;;;7.00;2.00;;;;;;;0.33;66.08;100251.75;104800;1273;73894;-31
2022/02/27 01:44:15;;;;;;;7.20;2.30;;;;;;;0.16;66.68;100254.99;104998;1272;76409;-30
2022/02/27 01:47:01;;;;;;;4.40;1.80;;;;;;;-0.00;67.13;100252.39;105092;1272;74446;-30
2022/02/27 01:49:29;;;;;;;5.20;1.80;;;;;;;-0.31;69.55;100256.00;105118;1273;61023;-32
2022/02/27 01:52:01;;;;;;;6.20;2.10;;;;;;;-0.55;70.32;100253.16;104977;1273;61889;-33
2022/02/27 01:54:30;;;;;;;5.50;2.60;;;;;;;-0.63;70.24;100251.59;104788;1273;73295;-34
2022/02/27 01:56:58;;;;;;;5.90;2.30;;;;;;;-0.67;70.02;100257.27;105097;1273;75056;-32
2022/02/27 01:59:26;;;;;;;7.30;2.80;;;;;;;-0.76;70.62;100258.10;104825;1273;74734;-32
2022/02/27 02:01:54;;;;;;;6.20;1.30;;;;;;;-0.82;70.93;100257.15;105120;1273;61744;-29
2022/02/27 02:04:22;;;;;;;4.20;1.40;;;;;;;-0.21;69.87;100261.64;104897;1273;61036;-30
2022/02/27 02:06:49;;;;;;;3.20;1.40;;;;;;;0.49;68.20;100262.04;104917;1273;75191;-30
2022/02/27 02:09:17;;;;;;;9.00;2.40;;;;;;;0.64;67.12;100263.09;104867;1273;74694;-30
2022/02/27 02:11:48;;;;;;;4.10;1.90;;;;;;;0.52;66.82;100261.11;104867;1273;71608;-30
2022/02/27 02:14:16;;;;;;;4.40;1.70;;;;;;;0.34;67.42;100257.71;104788;1273;61109;-29
2022/02/27 02:16:45;;;;;;;4.30;1.70;;;;;;;0.17;67.61;100259.58;104945;1273;61143;-30
2022/02/27 02:19:13;;;;;;;5.20;2.30;;;;;;;0.00;67.95;100259.05;104696;1273;74724;-29
2022/02/27 02:21:44;;;;;;;6.00;2.10;;;;;;;-0.16;68.16;100261.04;104639;1273;74696;-30
2022/02/27 02:24:12;;;;;;;3.70;2.20;;;;;;;-0.29;68.44;100259.73;104587;1273;73313;-29
2022/02/27 02:26:41;;;;;;;5.40;2.60;;;;;;;-0.44;69.71;100263.74;104683;1273;61182;-29
2022/02/27 02:29:10;;;;;;;6.10;2.10;;;;;;;-0.58;70.21;100264.80;104888;1273;60991;-29
2022/02/27 02:31:38;;;;;;;5.20;2.30;;;;;;;-0.71;71.22;100267.75;104710;1273;73773;-29
2022/02/27 02:34:07;;;;;;;2.80;1.90;;;;;;;-0.88;72.55;100266.63;105022;1273;75926;-30
2022/02/27 02:36:35;;;;;;;4.30;1.80;;;;;;;-0.95;73.19;100262.13;104824;1273;74484;-29
2022/02/27 02:39:05;;;;;;;7.10;2.70;;;;;;;-0.30;71.19;100264.85;104916;1273;62921;-29
2022/02/27 02:41:33;;;;;;;6.10;2.70;;;;;;;0.49;68.16;100268.19;104881;1273;61805;-30
2022/02/27 02:44:01;;;;;;;6.50;2.60;;;;;;;0.67;67.11;100267.64;105033;1272;72844;-30
2022/02/27 02:46:30;;;;;;;4.90;1.70;;;;;;;0.61;67.18;100267.60;104658;1273;75883;-30
2022/02/27 02:48:58;;;;;;;4.50;1.90;;;;;;;0.44;67.32;100266.91;104848;1273;72886;-30
2022/02/27 02:51:34;;;;;;;5.50;2.40;;;;;;;0.20;68.47;100273.70;104653;1273;61085;-30
2022/02/27 02:54:02;;;;;;;7.90;3.40;;;;;;;-0.06;69.24;100272.82;104981;1273;61871;-30
2022/02/27 02:56:30;;;;;;;9.00;4.30;;;;;;;-0.21;69.57;100273.75;104893;1273;74648;-29
2022/02/27 02:58:59;;;;;;;8.70;4.00;;;;;;;-0.36;70.27;100272.64;105057;1273;76178;-29
2022/02/27 03:01:26;;;;;;;8.50;4.10;;;;;;;-0.43;70.76;100276.35;104739;1273;73782;-29
2022/02/27 03:03:54;;;;;;;9.40;3.60;;;;;;;-0.47;71.09;100279.66;104619;1273;61144;-29
2022/02/27 03:06:22;;;;;;;5.30;2.10;;;;;;;-0.51;71.23;100275.28;104972;1273;61897;-29
2022/02/27 03:08:51;;;;;;;8.50;1.60;;;;;;;-0.54;71.78;100280.10;105138;1273;73686;-29
2022/02/27 03:11:19;;;;;;;4.90;2.20;;;;;;;0.01;71.94;100282.91;104986;1273;72665;-29
2022/02/27 03:13:48;;;;;;;8.00;2.50;;;;;;;0.75;69.19;100283.02;104628;1273;73603;-30
2022/02/27 03:16:15;;;;;;;7.70;2.50;;;;;;;0.97;68.15;100282.05;104644;1273;61206;-30
2022/02/27 03:18:43;;;;;;;4.10;1.60;;;;;;;0.88;67.79;100283.45;104763;1273;61058;-29
2022/02/27 03:21:10;;;;;;;6.50;2.10;;;;;;;0.69;68.07;100286.58;104842;1273;74549;-30
2022/02/27 03:23:37;;;;;;;6.10;2.30;;;;;;;0.49;68.75;100289.20;105090;1273;75827;-29
2022/02/27 03:26:07;;;;;;;7.10;2.80;;;;;;;0.22;69.92;100292.80;105156;1273;74251;-30
2022/02/27 03:28:35;;;;;;;4.70;2.50;;;;;;;-0.34;72.66;100297.52;104804;1273;61155;-30
2022/02/27 03:31:02;;;;;;;4.70;2.30;;;;;;;-0.45;73.94;100304.35;104872;1273;61123;-30
2022/02/27 03:33:30;;;;;;;4.20;2.40;;;;;;;-0.55;74.34;100303.33;105004;1273;74825;-29
2022/02/27 03:35:57;;;;;;;6.00;1.80;;;;;;;-0.45;73.52;100299.74;105061;1273;74662;-29
2022/02/27 03:38:25;;;;;;;14.00;2.70;;;;;;;0.08;72.60;100304.65;105092;1273;73077;-28
2022/02/27 03:40:54;;;;;;;5.30;2.20;;;;;;;0.81;70.19;100308.55;105111;1273;61706;-29
2022/02/27 03:43:21;;;;;;;7.90;2.70;;;;;;;0.94;69.37;100305.70;104881;1273;61062;-29
2022/02/27 03:45:48;;;;;;;5.80;2.30;;;;;;;0.68;69.70;100308.31;105026;1273;74785;-29
2022/02/27 03:48:16;;;;;;;5.30;2.80;;;;;;;0.42;70.01;100315.48;105072;1273;75667;-29
2022/02/27 03:50:43;;;;;;;4.20;2.10;;;;;;;0.27;70.56;100312.34;104847;1273;74409;-30
2022/02/27 03:53:10;;;;;;;8.30;2.50;;;;;;;0.06;70.92;100316.13;104830;1273;61040;-30
2022/02/27 03:55:38;;;;;;;11.40;4.20;;;;;;;-0.12;71.13;100320.38;104992;1273;61742;-30
2022/02/27 03:58:06;;;;;;;10.10;3.40;;;;;;;-0.30;71.94;100319.81;104774;1273;74812;-31
2022/02/27 04:00:33;;;;;;;9.30;3.10;;;;;;;-0.34;72.32;100317.48;104793;1273;75519;-31
2022/02/27 04:03:01;;;;;;;7.50;3.60;;;;;;;-0.38;72.36;100320.80;104829;1273;73462;-29
2022/02/27 04:05:28;;;;;;;7.90;2.50;;;;;;;-0.40;72.72;100323.90;104940;1273;61135;-29
2022/02/27 04:07:58;;;;;;;5.60;2.30;;;;;;;-0.03;71.74;100326.54;105114;1273;61084;-29
2022/02/27 04:10:26;;;;;;;10.30;3.10;;;;;;;0.70;69.33;100325.36;104854;1273;73028;-29
2022/02/27 04:12:53;;;;;;;11.30;4.00;;;;;;;0.84;68.31;100327.30;104886;1273;75893;-29
2022/02/27 04:15:42;;;;;;;9.60;4.10;;;;;;;0.66;69.00;100330.91;104754;1273;75688;-29
2022/02/27 04:18:09;;;;;;;9.60;4.00;;;;;;;0.52;69.43;100327.26;104918;1273;61113;-30
2022/02/27 04:20:37;;;;;;;15.60;5.80;;;;;;;0.23;70.34;100328.81;105030;1273;61098;-29
2022/02/27 04:23:05;;;;;;;14.90;5.20;;;;;;;-0.11;71.98;100329.73;105107;1273;71967;-29
2022/02/27 04:25:32;;;;;;;7.20;3.30;;;;;;;-0.30;72.88;100332.46;105078;1272;75961;-29
2022/02/27 04:27:59;;;;;;;7.10;3.50;;;;;;;-0.39;73.70;100333.61;105091;1273;73165;-28
2022/02/27 04:30:27;;;;;;;6.40;3.30;;;;;;;-0.39;74.04;100334.64;105114;1273;61132;-29
2022/02/27 04:32:55;;;;;;;12.30;3.20;;;;;;;-0.01;72.83;100337.93;105110;1273;61029;-29
2022/02/27 04:35:22;;;;;;;9.50;2.70;;;;;;;0.46;70.85;100340.00;104913;1273;73475;-29
2022/02/27 04:37:49;;;;;;;6.70;2.70;;;;;;;0.47;70.47;100343.92;104774;1273;74983;-29
2022/02/27 04:40:17;;;;;;;9.30;3.50;;;;;;;0.38;71.07;100346.48;104822;1273;74353;-29
2022/02/27 04:42:44;;;;;;;10.40;4.50;;;;;;;0.27;71.72;100346.67;105078;1273;61061;-29
2022/02/27 04:45:11;;;;;;;11.60;4.10;;;;;;;0.13;72.20;100346.92;104960;1273;61043;-29
2022/02/27 04:47:39;;;;;;;8.10;3.80;;;;;;;-0.01;72.83;100343.58;104809;1273;75331;-29
2022/02/27 04:50:07;;;;;;;10.10;4.00;;;;;;;-0.15;73.45;100343.98;104863;1273;75892;-30
2022/02/27 04:52:34;;;;;;;8.10;3.80;;;;;;;-0.23;73.81;100345.98;104815;1273;74150;-29
2022/02/27 04:55:02;;;;;;;7.60;3.30;;;;;;;-0.14;73.73;100348.39;105128;1273;62603;-29
2022/02/27 04:57:31;;;;;;;7.40;3.20;;;;;;;0.49;71.68;100352.25;104546;1275;61075;-29
2022/02/27 05:00:00;;;;;;;10.70;3.70;;;;;;;0.63;70.68;100352.66;104850;1272;75490;-29
2022/02/27 05:02:28;;;;;;;6.20;3.50;;;;;;;0.53;71.05;100357.81;104959;1272;75155;-29
2022/02/27 05:04:56;;;;;;;8.60;3.80;;;;;;;0.43;71.44;100354.60;104841;1273;74550;-29
2022/02/27 05:07:23;;;;;;;6.80;3.00;;;;;;;0.28;72.10;100355.72;104987;1273;61029;-29
2022/02/27 05:09:51;;;;;;;13.40;4.90;;;;;;;0.05;73.07;100353.04;104929;1273;61056;-29
2022/02/27 05:12:19;;;;;;;9.50;4.50;;;;;;;-0.05;73.77;100351.17;105106;1273;75662;-29
2022/02/27 05:14:46;;;;;;;16.30;6.90;;;;;;;-0.16;73.96;100352.52;104963;1273;75988;-29
2022/02/27 05:17:35;;;;;;;14.30;4.70;;;;;;;-0.24;74.95;100351.98;104955;1273;73349;-29
2022/02/27 05:20:04;;;;;;;15.10;7.20;;;;;;;0.57;72.60;100349.54;104762;1273;61147;-29
2022/02/27 05:22:32;;;;;;;21.10;8.30;;;;;;;1.13;69.76;100351.14;104948;1273;61046;-29
2022/02/27 05:25:00;;;;;;;9.10;4.70;;;;;;;0.98;69.71;100343.27;104759;1273;75538;-30
2022/02/27 05:27:27;;;;;;;8.80;4.40;;;;;;;0.89;69.88;100340.55;105098;1273;75957;-29
2022/02/27 05:29:54;;;;;;;12.60;4.90;;;;;;;0.75;70.28;100341.67;104893;1273;74278;-29
2022/02/27 05:32:22;;;;;;;10.80;4.80;;;;;;;0.56;70.46;100344.08;104863;1273;61196;-29
2022/02/27 05:34:49;;;;;;;10.60;4.30;;;;;;;0.40;70.59;100344.21;105056;1273;61215;-29
2022/02/27 05:37:20;;;;;;;4.80;3.00;;;;;;;0.26;70.89;100339.70;104865;1273;75531;-29
2022/02/27 05:39:47;;;;;;;7.50;3.80;;;;;;;0.12;70.63;100336.17;104718;1273;75946;-29
2022/02/27 05:42:16;;;;;;;7.70;3.50;;;;;;;0.01;70.79;100335.88;104751;1273;74304;-29
2022/02/27 05:44:43;;;;;;;8.00;3.80;;;;;;;-0.09;71.50;100339.78;104732;1273;61148;-29
2022/02/27 05:47:11;;;;;;;6.20;3.80;;;;;;;-0.17;72.52;100338.73;105124;1273;61033;-30
2022/02/27 05:49:38;;;;;;;6.20;2.50;;;;;;;-0.27;73.23;100341.27;104845;1273;74303;-30
2022/02/27 05:52:06;;;;;;;23.90;10.40;;;;;;;0.20;73.09;100340.66;104904;1273;76019;-30
2022/02/27 05:54:33;;;;;;;34.60;16.50;;;;;;;0.90;70.59;100342.06;104783;1273;74195;-30
2022/02/27 05:57:00;;;;;;;29.90;14.50;;;;;;;1.07;69.61;100340.52;105041;1273;61980;-29
2022/02/27 05:59:28;;;;;;;22.00;10.50;;;;;;;0.98;69.65;100342.75;104954;1272;61155;-29
2022/02/27 06:01:56;;;;;;;21.80;11.30;;;;;;;0.84;70.09;100342.86;104735;1273;75447;-29
2022/02/27 06:04:23;;;;;;;17.10;11.30;;;;;;;0.60;70.56;100347.78;104965;1273;75991;-29
2022/02/27 06:06:50;;;;;;;19.90;10.40;;;;;;;0.43;71.65;100350.50;105110;1273;73188;-30
2022/02/27 06:09:17;;;;;;;18.30;8.50;;;;;;;0.22;72.52;100352.06;105153;1273;61071;-29
2022/02/27 06:11:48;;;;;;;20.90;7.40;;;;;;;0.11;73.17;100353.95;105104;1273;61879;-29
2022/02/27 06:14:15;;;;;;;14.60;6.80;;;;;;;0.04;73.50;100351.52;105005;1273;74197;-29
2022/02/27 06:16:43;;;;;;;11.60;6.20;;;;;;;-0.01;73.95;100352.81;105101;1273;76165;-29
2022/02/27 06:19:10;;;;;;;15.90;8.00;;;;;;;-0.04;74.16;100355.94;104916;1273;74301;-30
2022/02/27 06:21:38;;;;;;;7.10;3.80;;;;;;;-0.06;74.31;100360.91;104802;1272;62011;-29
2022/02/27 06:24:06;;;;;;;10.00;4.20;;;;;;;0.61;71.87;100364.16;105106;1273;62972;-29
2022/02/27 06:26:34;;;;;;;13.20;5.30;;;;;;;1.26;69.76;100362.84;105118;1273;75576;-30
2022/02/27 06:29:02;;;;;;;7.10;4.00;;;;;;;1.65;68.50;100361.45;104871;1273;75084;-30
2022/02/27 06:31:30;;;;;;;13.20;6.40;;;;;;;1.60;68.07;100363.45;104801;1273;74348;-29
2022/02/27 06:33:58;;;;;;;13.20;4.10;;;;;;;1.60;67.96;100367.55;105146;1273;61045;-29
2022/02/27 06:36:26;;;;;;;7.80;3.80;;;;;;;1.54;67.91;100369.23;105127;1273;63266;-29
2022/02/27 06:38:53;;;;;;;8.10;3.50;;;;;;;1.50;67.97;100371.39;104848;1273;74264;-29
2022/02/27 06:41:23;;;;;;;8.20;3.70;;;;;;;1.53;68.45;100370.81;104756;1273;74915;-28
2022/02/27 06:43:50;;;;;;;8.30;4.10;;;;;;;1.51;67.96;100373.06;104742;1273;74295;-28
2022/02/27 06:46:23;;;;;;;9.20;3.60;;;;;;;1.50;68.30;100371.55;104697;1273;61087;-29
2022/02/27 06:48:51;;;;;;;6.80;3.70;;;;;;;1.48;68.40;100371.95;105082;1273;61879;-28
2022/02/27 06:51:18;;;;;;;5.30;3.00;;;;;;;1.39;68.87;100373.86;104840;1273;74531;-28
2022/02/27 06:53:45;;;;;;;7.10;3.90;;;;;;;1.21;69.13;100379.04;104946;1273;74942;-30
2022/02/27 06:56:13;;;;;;;6.70;3.80;;;;;;;1.16;69.67;100377.42;104750;1273;73372;-30
2022/02/27 06:58:40;;;;;;;11.30;5.10;;;;;;;1.22;69.55;100378.52;104680;1273;61237;-30
2022/02/27 07:01:11;;;;;;;5.70;2.90;;;;;;;1.32;69.49;100379.14;105010;1273;61166;-29
2022/02/27 07:03:39;;;;;;;6.50;3.50;;;;;;;2.04;66.66;100376.96;104868;1273;76194;-29
2022/02/27 07:06:07;;;;;;;7.50;3.20;;;;;;;2.41;65.54;100379.79;105098;1273;76025;-29
2022/02/27 07:08:48;;;;;;;6.10;3.00;;;;;;;2.36;65.22;100379.59;105121;1273;74253;-29
2022/02/27 07:11:16;;;;;;;10.60;3.30;;;;;;;2.32;65.86;100381.06;104910;1273;61127;-30
2022/02/27 07:13:48;;;;;;;12.60;4.20;;;;;;;2.09;66.16;100385.75;104821;1273;61027;-30
2022/02/27 07:16:15;;;;;;;10.10;4.20;;;;;;;1.84;67.40;100392.33;105068;1273;75397;-30
2022/02/27 07:18:43;;;;;;;6.50;3.00;;;;;;;1.58;68.70;100389.70;105153;1273;75696;-30
2022/02/27 07:21:11;;;;;;;10.30;3.70;;;;;;;1.50;68.48;100391.06;104939;1273;74172;-29
2022/02/27 07:23:38;;;;;;;9.60;4.30;;;;;;;1.33;68.54;100383.58;105086;1273;61139;-29
2022/02/27 07:26:05;;;;;;;12.80;4.50;;;;;;;1.31;68.91;100384.46;104799;1273;61815;-30
2022/02/27 07:28:33;;;;;;;10.10;3.80;;;;;;;1.30;69.41;100386.20;104681;1273;75623;-29
2022/02/27 07:31:01;;;;;;;10.70;4.00;;;;;;;1.28;69.82;100388.48;104777;1273;74358;-29
2022/02/27 07:33:29;;;;;;;7.00;3.70;;;;;;;1.40;69.45;100387.34;105036;1273;72921;-29
2022/02/27 07:35:57;;;;;;;9.80;4.20;;;;;;;2.22;67.05;100386.80;104576;1273;61116;-29
2022/02/27 07:38:24;;;;;;;9.60;4.40;;;;;;;2.78;64.75;100387.03;104620;1273;61203;-29
2022/02/27 07:40:52;;;;;;;7.10;3.60;;;;;;;2.76;64.21;100383.48;104741;1273;74564;-29
2022/02/27 07:43:26;;;;;;;13.60;5.00;;;;;;;2.53;64.93;100382.92;104831;1273;75867;-28
2022/02/27 07:45:53;;;;;;;12.20;6.50;;;;;;;2.42;65.83;100386.11;104692;1273;74407;-28
2022/02/27 07:48:21;;;;;;;12.00;5.40;;;;;;;2.31;65.74;100383.48;104623;1273;61126;-28
2022/02/27 07:50:48;;;;;;;12.40;5.30;;;;;;;2.17;66.23;100378.34;104987;1273;61117;-29
2022/02/27 07:53:16;;;;;;;10.20;5.00;;;;;;;2.37;65.17;100368.59;105035;1273;75471;-29
2022/02/27 07:55:43;;;;;;;13.10;5.20;;;;;;;2.53;64.94;100362.50;104899;1273;75029;-29
2022/02/27 07:58:12;;;;;;;13.20;5.30;;;;;;;2.64;64.79;100356.73;105016;1273;71960;-29
2022/02/27 08:00:40;;;;;;;8.60;4.30;;;;;;;2.73;64.54;100353.20;104760;1273;61094;-28
2022/02/27 08:03:08;;;;;;;10.20;3.80;;;;;;;2.87;64.38;100359.17;105014;1273;61010;-28
2022/02/27 08:05:36;;;;;;;7.60;3.90;;;;;;;3.00;63.62;100363.42;104760;1273;74680;-29
2022/02/27 08:08:04;;;;;;;7.00;3.20;;;;;;;3.09;63.15;100365.22;105117;1273;76294;-28
2022/02/27 08:10:51;;;;;;;9.10;3.70;;;;;;;3.23;62.60;100363.61;104753;1273;75172;-28
2022/02/27 08:13:19;;;;;;;7.90;4.00;;;;;;;3.37;62.38;100366.30;105005;1273;61133;-29
2022/02/27 08:15:46;;;;;;;8.90;4.20;;;;;;;3.31;61.35;100364.57;105078;1273;61866;-29
2022/02/27 08:18:14;;;;;;;11.50;5.50;;;;;;;3.35;61.21;100365.15;105136;1273;75604;-28
2022/02/27 08:20:41;;;;;;;16.80;6.60;;;;;;;3.14;62.09;100369.20;105000;1273;74963;-29
2022/02/27 08:23:09;;;;;;;15.20;8.40;;;;;;;3.22;63.84;100379.96;105089;1273;73277;-29
2022/02/27 08:25:36;;;;;;;12.80;6.60;;;;;;;3.22;63.36;100381.00;105048;1273;61046;-29
2022/02/27 08:28:04;;;;;;;9.80;4.30;;;;;;;2.92;63.82;100375.30;105051;1273;61988;-30
2022/02/27 08:30:31;;;;;;;7.80;3.00;;;;;;;2.68;64.16;100372.75;104862;1273;75740;-34
2022/02/27 08:32:58;;;;;;;8.80;3.40;;;;;;;2.75;64.12;100368.08;104889;1273;76025;-30
2022/02/27 08:35:26;;;;;;;6.20;2.90;;;;;;;3.20;63.34;100366.81;104811;1273;72387;-29
2022/02/27 08:37:53;;;;;;;5.90;2.80;;;;;;;3.18;63.38;100361.03;104722;1273;61184;-28
2022/02/27 08:40:21;;;;;;;11.60;4.40;;;;;;;3.47;62.98;100361.70;104788;1273;61986;-30
2022/02/27 08:42:53;;;;;;;6.70;3.30;;;;;;;3.32;63.18;100359.05;104774;1273;75673;-31
2022/02/27 08:45:21;;;;;;;5.90;2.90;;;;;;;3.34;63.32;100355.93;104857;1273;75963;-31
2022/02/27 08:47:50;;;;;;;6.90;2.90;;;;;;;3.49;63.05;100355.64;104746;1273;74712;-32
2022/02/27 08:50:17;;;;;;;6.10;2.60;;;;;;;3.58;62.73;100357.08;104737;1273;61156;-30
2022/02/27 08:52:45;;;;;;;5.40;2.60;;;;;;;3.97;62.02;100354.44;104945;1273;62162;-31
2022/02/27 08:55:15;;;;;;;9.30;3.50;;;;;;;4.23;61.38;100353.77;105106;1273;75502;-30
2022/02/27 08:57:46;;;;;;;7.10;3.10;;;;;;;4.28;60.58;100343.77;105028;1273;75881;-31
2022/02/27 09:00:14;;;;;;;7.90;4.00;;;;;;;4.32;61.09;100340.53;105114;1273;74557;-29
2022/02/27 09:02:45;;;;;;;8.90;4.30;;;;;;;4.26;60.04;100343.85;105083;1272;61119;-28
2022/02/27 09:05:13;;;;;;;8.90;3.20;;;;;;;4.44;59.31;100348.04;105024;1273;61151;-28
2022/02/27 09:08:00;;;;;;;7.30;3.50;;;;;;;5.18;58.23;100351.19;104769;1273;75360;-28
2022/02/27 09:10:28;;;;;;;6.50;3.00;;;;;;;5.55;57.64;100348.05;104900;1273;76009;-29
2022/02/27 09:12:55;;;;;;;9.80;3.70;;;;;;;5.67;56.26;100346.70;104928;1273;74474;-28
2022/02/27 09:15:23;;;;;;;7.60;3.10;;;;;;;5.73;56.60;100347.51;104877;1273;61156;-28
2022/02/27 09:17:52;;;;;;;4.90;2.30;;;;;;;6.13;55.33;100344.02;104695;1273;61251;-28
2022/02/27 09:20:20;;;;;;;5.70;2.60;;;;;;;5.90;55.81;100342.86;104774;1273;75334;-29
2022/02/27 09:22:49;;;;;;;8.00;3.30;;;;;;;5.76;55.92;100344.29;104715;1273;75951;-29
2022/02/27 09:25:17;;;;;;;4.30;2.80;;;;;;;5.37;56.22;100343.25;104739;1273;74346;-29
2022/02/27 09:28:05;;;;;;;7.50;3.90;;;;;;;6.06;53.55;100342.36;104722;1273;61005;-28
2022/02/27 09:30:32;;;;;;;45.90;18.40;;;;;;;6.60;52.68;100338.91;104744;1273;62903;-28
2022/02/27 09:32:59;;;;;;;12.40;4.90;;;;;;;6.77;52.67;100336.95;104817;1273;74360;-29
2022/02/27 09:35:28;;;;;;;5.70;2.60;;;;;;;7.34;51.84;100332.77;104936;1273;75787;-28
2022/02/27 09:37:57;;;;;;;6.20;2.70;;;;;;;7.84;49.82;100331.80;104734;1273;74589;-28
2022/02/27 09:40:26;;;;;;;3.40;1.70;;;;;;;7.98;48.56;100327.80;104678;1273;62093;-28
2022/02/27 09:42:55;;;;;;;5.10;2.30;;;;;;;7.80;45.33;100325.88;104724;1273;61054;-27
2022/02/27 09:45:23;;;;;;;4.90;2.10;;;;;;;6.93;46.48;100322.03;104898;1273;75553;-28
2022/02/27 09:47:51;;;;;;;4.70;1.70;;;;;;;6.78;47.07;100316.13;105100;1273;76126;-27
2022/02/27 09:50:20;;;;;;;5.50;2.60;;;;;;;6.20;48.39;100317.67;104795;1274;74365;-28
2022/02/27 09:52:47;;;;;;;5.90;2.30;;;;;;;5.96;48.80;100309.68;104726;1273;61979;-27
2022/02/27 09:55:16;;;;;;;5.50;2.30;;;;;;;6.53;48.63;100310.58;104999;1273;61128;-28
2022/02/27 09:57:46;;;;;;;5.60;2.50;;;;;;;6.44;48.39;100307.51;104729;1273;75467;-30
2022/02/27 10:00:15;;;;;;;6.80;2.40;;;;;;;6.16;49.28;100310.41;104813;1273;75449;-30
2022/02/27 10:03:03;;;;;;;2.80;1.80;;;;;;;5.69;48.55;100305.80;104847;1273;73203;-30
2022/02/27 10:05:42;;;;;;;2.90;1.40;;;;;;;5.12;49.23;100303.95;104841;1273;61144;-29
2022/02/27 10:08:10;;;;;;;2.50;1.10;;;;;;;4.72;51.40;100305.41;104729;1273;61160;-28
2022/02/27 10:10:39;;;;;;;3.30;1.00;;;;;;;4.37;53.48;100303.42;104881;1273;74439;-28
2022/02/27 10:13:06;;;;;;;5.00;2.20;;;;;;;4.29;55.93;100301.27;105048;1273;74223;-28
2022/02/27 10:15:35;;;;;;;5.80;3.30;;;;;;;3.65;63.51;100304.45;105045;1273;74222;-28
2022/02/27 10:18:15;;;;;;;6.10;3.00;;;;;;;3.11;68.11;100304.60;104812;1273;61255;-28
2022/02/27 10:20:43;;;;;;;9.30;2.90;;;;;;;3.03;70.26;100307.25;105112;1273;61060;-28
2022/02/27 10:23:11;;;;;;;4.00;2.10;;;;;;;2.60;72.30;100298.88;104942;1273;73408;-29
2022/02/27 10:25:40;;;;;;;5.20;1.90;;;;;;;2.30;74.38;100305.89;104773;1273;75890;-28
2022/02/27 10:28:07;;;;;;;3.90;1.60;;;;;;;2.20;75.61;100303.73;104996;1273;73028;-31
2022/02/27 10:30:37;;;;;;;3.50;1.70;;;;;;;2.63;74.85;100308.05;104944;1273;61714;-31
2022/02/27 10:33:11;;;;;;;2.20;1.20;;;;;;;2.75;74.66;100303.94;104721;1273;61136;-30
2022/02/27 10:35:51;;;;;;;3.00;1.20;;;;;;;2.70;75.10;100310.93;105043;1273;75480;-31
2022/02/27 10:38:37;;;;;;;1.50;0.80;;;;;;;2.02;77.36;100301.98;105094;1273;75053;-31
2022/02/27 10:41:12;;;;;;;2.70;1.00;;;;;;;1.70;78.39;100301.41;104716;1273;74382;-30
2022/02/27 10:43:43;;;;;;;3.60;0.80;;;;;;;1.59;79.42;100306.46;105013;1273;61055;-29
2022/02/27 10:46:13;;;;;;;3.80;0.90;;;;;;;1.78;77.96;100308.05;104894;1273;61142;-28
2022/02/27 10:48:40;;;;;;;0.80;0.50;;;;;;;1.98;75.50;100305.17;105120;1273;73936;-28
2022/02/27 10:51:11;;;;;;;2.10;0.70;;;;;;;2.00;75.69;100309.73;105066;1273;75830;-30
2022/02/27 10:53:45;;;;;;;1.30;0.60;;;;;;;1.63;77.52;100318.52;105026;1273;74661;-31
2022/02/27 10:56:14;;;;;;;3.20;0.40;;;;;;;1.75;78.14;100316.19;104859;1273;61296;-29
2022/02/27 10:58:47;;;;;;;1.70;0.60;;;;;;;1.91;76.48;100317.16;105106;1273;62547;-28
2022/02/27 11:01:18;;;;;;;0.40;0.40;;;;;;;1.80;75.63;100312.62;105090;1273;74652;-29
2022/02/27 11:03:54;;;;;;;0.40;0.40;;;;;;;1.51;78.63;100309.05;105098;1273;76033;-29
2022/02/27 11:06:22;;;;;;;2.80;0.80;;;;;;;1.50;80.01;100303.09;104985;1273;71414;-29
2022/02/27 11:08:49;;;;;;;0.80;0.60;;;;;;;1.83;78.49;100305.71;104651;1273;61151;-29
2022/02/27 11:11:16;;;;;;;2.80;0.50;;;;;;;2.03;78.17;100302.64;105094;1273;61195;-28
2022/02/27 11:13:47;;;;;;;2.10;0.90;;;;;;;1.87;78.85;100298.42;104943;1273;74579;-28
2022/02/27 11:16:15;;;;;;;2.30;0.60;;;;;;;1.57;80.63;100291.45;104721;1273;75812;-28
2022/02/27 11:18:58;;;;;;;1.20;0.60;;;;;;;1.54;80.97;100288.27;104796;1273;74329;-30
2022/02/27 11:21:26;;;;;;;2.10;0.50;;;;;;;1.51;81.27;100283.91;104929;1273;61714;-28
2022/02/27 11:23:54;;;;;;;0.40;0.40;;;;;;;2.04;79.28;100287.02;104744;1273;61797;-28
2022/02/27 11:26:22;;;;;;;1.10;0.60;;;;;;;2.54;76.24;100282.59;104888;1273;74514;-30
2022/02/27 11:28:50;;;;;;;1.90;0.80;;;;;;;2.58;73.55;100275.64;104762;1273;75595;-30
2022/02/27 11:31:17;;;;;;;2.10;1.00;;;;;;;2.76;74.60;100277.31;104951;1273;74404;-29